Hovedside
METAR-TAF:

METAR-TAF

Lufthavner :

Odense, Danmark

Hans Christian Andersen Airport

breddegrad: 55-29N, lengdegrad: 010-20E, høyde over havet: 17 m

Gjeldene værobservasjon

Denne rapporten ble laget for 7 timer og 39 minutter siden, klokken 13:50 UTC
Vind 9 kt fra Øst, skiftende mellom Nordøst og Sørøst
Temperatur 0°C
Luftfuktighet 51%
Trykk 1035 hPa
Sikt 10 km eller mer
Få skyer i en høyde av 3200 ft

METAR: EKOD 241350Z 09009KT 050V130 9999 FEW032 M00/M09 Q1035

Tid: 22:29 (21:29 UTC)

Varsel

Denne rapporten ble laget for 12 timer og 43 minutter siden, klokken 08:46 UTC
Varsel gyldig fra 24. klokken 09 UTC til 24. klokken 15 UTC
Vind 12 kt fra Øst
Sikt 10 km eller mer
Få skyer i en høyde av 3000 ft

TAF: EKOD 240846Z 2409/2415 09012KT 9999 FEW030

Værobservasjoner og værvarsel for over 4000 flyplasser (METAR- og TAF-rapporter).

Tilgjengelige stasjoner er representert av de røde og gule prikkene på kartet.

Hold musepekeren over prikken for å se navnet på stasjonen.

Klikk så for å se værobservasjoner og -varsler.

For å forandre kartet kan du klikke på den grønne knappen med svart kryss for å zoome inn, på den grønne knappen med strek for å zoome ut, eller på de grønne pilene for å se tilstøtende kart.


METAR-TAF: